Airfield :
LOGIN :

Register | Disclaimer

   EN    FR    IT 

 










Legend :    VFR   Marginal VFR   IFR   Intensive IFR   Very Intensive IFR
Visi :
Ceiling :
>= 8 km
>= 3000ft
5 to 8 km
1000 to 3000 ft
1500m to 5 km
500 to 1000 ft
800 to 1500m
200 to 500 ft
< 800m
< 200 ft
Symbols :   Thunderstorms  Fog  Heavy snow  Heavy precipitations  Wind > 20 kt
SIGMETs :     Misc.  Thunderstorms  Icing  Turbulence  Mountain Waves  Volcanic Ashes






- Airport Elevation : 416 ft
- IATA code : OVD


LEAS - Asturias

CURRENT METAR :
  • 271730Z 31016KT 290V350 9999 FEW070 SCT074 14/10 Q1021 NOSIG

EXPIRED METARs :
  • 271700Z 30016KT 280V340 9000 FEW054 SCT070 15/10 Q1020 NOSIG
  • 271630Z 30014KT 270V330 8000 SCT054 SCT070 15/10 Q1020 NOSIG
  • 271600Z 30015KT 9999 FEW050 BKN055 15/11 Q1020 NOSIG
  • 271530Z 30016KT 270V330 9999 SCT050 BKN054 14/11 Q1020 NOSIG
  • 271500Z 29017KT 9999 SCT048 BKN052 15/10 Q1020 NOSIG

TAF TAF LEAS
Valid from the 27 at 15:00 until the 28 at 15:00 UTC


271400Z 2715/2815 28015KT 9999 SCT040 TX17/2715Z TN08/2807Z
TEMPO 2715/2718 28020G30KT
BECMG 2720/2724 22008KT



MET'MAP, your aeronautical weather chart ! - Copyright ORBIFLY December 2007 - Disclaimer

ORBIFLY MET'MAP TEAM :

Programming & Development : Alexandra Zaïnal
Concept & original design : Baudouin d'Aumeries
Assistance for programming : Marc-Olivier Méhu
Technical & hardware support : Manuel Goepfert

Contact : metmap@orbifly.com




SOURCES & CREDITS :

   NOAA